»·PEaware :: XACAM KKNB-KLGB

XACAM :: KKNB-KLGB

FLIGHT INFORMATION

Flight Status: Arrived
Operator: Unknown
More flights by this operator :: More flights under this callsign
Pilot: Rafael C. (24230)
Aircraft: BOEING 737-600
(B736)
More flights by this aircraft type
Origin: KKNB Kanab Mun
United States
Destination: KLGB Long Beach
United States
More flights between these airports :: More routes between these airports
Route: KACIR2 JALMA NATEE DSNEE5
File this flight plan on PilotEdge
Remarks: ILS 30, MIDDS Transition
Altitude:
(Current/Filed)
32,000ft
Speed:
(Current/Filed)
450kts
Departed: 28-Aug-23 06:16 PM
Arrived: 28-Aug-23 07:23 PM
Distance/Time
Traveled:
335nm/1:07
Distance/Time
To Go:
Arrived

Flight Plot

Page will automatically refresh every two minutes.

Flight plan parsing failed; only flown route is shown


Map Options




Map Legend


Flown Route
Filed Route
Departure Airport
Arrival Airport
Navaid (VOR, NDB)
Fix

Horizontal Profiles

Position Reports

Time Latitude Longitude Heading Altitude Ground
Speed
28-Aug-23 17:45 37.010617 -112.529967 207 4855ft 0kts
28-Aug-23 17:46 37.010617 -112.529967 207 4855ft 0kts
28-Aug-23 17:47 37.010617 -112.529967 207 4855ft 0kts
28-Aug-23 17:48 37.010617 -112.529967 207 4855ft 0kts
28-Aug-23 17:49 37.010617 -112.529967 207 4855ft 0kts
28-Aug-23 17:50 37.010617 -112.529967 207 4855ft 0kts
28-Aug-23 17:51 37.010617 -112.529967 207 4855ft 0kts
28-Aug-23 17:52 37.010617 -112.529967 207 4855ft 0kts
28-Aug-23 17:53 37.010617 -112.529967 207 4855ft 0kts
28-Aug-23 17:54 37.010617 -112.529967 207 4855ft 0kts
28-Aug-23 17:55 37.010617 -112.529967 207 4855ft 0kts
28-Aug-23 17:56 37.010617 -112.529967 207 4855ft 0kts
28-Aug-23 17:57 37.010617 -112.529967 207 4855ft 0kts
28-Aug-23 17:58 37.010617 -112.529967 207 4855ft 0kts
28-Aug-23 17:59 37.010617 -112.529967 207 4855ft 0kts
28-Aug-23 18:00 37.010617 -112.529967 207 4855ft 0kts
28-Aug-23 18:01 37.010617 -112.529967 207 4846ft 0kts
28-Aug-23 18:02 37.010617 -112.529967 207 4846ft 0kts
28-Aug-23 18:03 37.010617 -112.529967 207 4846ft 0kts
28-Aug-23 18:04 37.010617 -112.529967 207 4846ft 0kts
28-Aug-23 18:05 37.010617 -112.529967 207 4846ft 0kts
28-Aug-23 18:06 37.010617 -112.529967 207 4846ft 0kts
28-Aug-23 18:07 37.010617 -112.529967 207 4846ft 0kts
28-Aug-23 18:08 37.010617 -112.529967 207 4855ft 0kts
28-Aug-23 18:09 37.010617 -112.529967 207 4855ft 0kts
28-Aug-23 18:10 37.008952 -112.531367 227 4850ft 0kts
28-Aug-23 18:11 37.008952 -112.531367 227 4850ft 0kts
28-Aug-23 18:12 37.008952 -112.531367 227 4850ft 0kts
28-Aug-23 18:13 37.008150 -112.532461 221 4850ft 14kts
28-Aug-23 18:14 37.002911 -112.535166 201 4835ft 10kts
28-Aug-23 18:15 37.010553 -112.531475 20 4857ft 121kts
28-Aug-23 18:16 37.052756 -112.513105 20 6921ft 172kts
28-Aug-23 18:17 37.062633 -112.464719 111 9272ft 178kts
28-Aug-23 18:18 37.043808 -112.404319 111 11391ft 208kts
28-Aug-23 18:19 37.017693 -112.321107 111 12019ft 309kts
28-Aug-23 18:20 36.957916 -112.235499 172 13783ft 362kts
28-Aug-23 18:21 36.854660 -112.226616 176 16282ft 381kts
28-Aug-23 18:22 36.746150 -112.216975 175 18634ft 400kts
28-Aug-23 18:23 36.633128 -112.206489 175 20775ft 414kts
28-Aug-23 18:24 36.538415 -112.272815 248 22768ft 420kts
28-Aug-23 18:25 36.497500 -112.410157 254 24641ft 429kts
28-Aug-23 18:26 36.460100 -112.551846 252 26393ft 435kts
28-Aug-23 18:27 36.419853 -112.694680 252 28031ft 440kts
28-Aug-23 18:28 36.379528 -112.835825 252 30308ft 428kts
28-Aug-23 18:29 36.339836 -112.974251 251 31948ft 426kts
28-Aug-23 18:30 36.299953 -113.112734 251 31954ft 426kts
28-Aug-23 18:31 36.259992 -113.250806 251 31943ft 426kts
28-Aug-23 18:32 36.219930 -113.388525 251 31944ft 425kts
28-Aug-23 18:34 36.179695 -113.526157 250 31916ft 425kts
28-Aug-23 18:35 36.139249 -113.663836 250 31897ft 425kts
28-Aug-23 18:36 36.098686 -113.801235 250 31880ft 426kts
28-Aug-23 18:37 36.057812 -113.939014 250 31862ft 426kts
28-Aug-23 18:38 36.016920 -114.076176 250 31837ft 426kts
28-Aug-23 18:39 35.975922 -114.213036 250 31817ft 425kts
28-Aug-23 18:40 35.934736 -114.349869 250 31815ft 426kts
28-Aug-23 18:41 35.893325 -114.486796 250 31830ft 426kts
28-Aug-23 18:42 35.851659 -114.623914 249 31886ft 426kts
28-Aug-23 18:43 35.809852 -114.760858 249 31920ft 426kts
28-Aug-23 18:44 35.768089 -114.897017 249 31933ft 426kts
28-Aug-23 18:45 35.726039 -115.033509 249 31956ft 426kts
28-Aug-23 18:46 35.683808 -115.170026 249 31970ft 426kts
28-Aug-23 18:47 35.641675 -115.305831 249 31986ft 426kts
28-Aug-23 18:48 35.580251 -115.428254 227 31990ft 429kts
28-Aug-23 18:49 35.499483 -115.536148 228 31987ft 429kts
28-Aug-23 18:50 35.418802 -115.644591 228 31976ft 430kts
28-Aug-23 18:51 35.337985 -115.752752 228 31951ft 430kts
28-Aug-23 18:52 35.257180 -115.860690 227 31931ft 430kts
28-Aug-23 18:53 35.174769 -115.967361 225 31900ft 431kts
28-Aug-23 18:54 35.091148 -116.071898 226 31883ft 431kts
28-Aug-23 18:55 35.007605 -116.176921 226 31868ft 431kts
28-Aug-23 18:56 34.923993 -116.281853 226 31614ft 434kts
28-Aug-23 18:57 34.839536 -116.388167 226 28820ft 439kts
28-Aug-23 18:58 34.757082 -116.493411 226 26614ft 424kts
28-Aug-23 18:58 34.689390 -116.579109 223 24829ft 417kts
28-Aug-23 19:00 34.583810 -116.681770 217 22151ft 415kts
28-Aug-23 19:01 34.495375 -116.768579 220 20007ft 403kts
28-Aug-23 19:02 34.415657 -116.861868 223 17891ft 395kts
28-Aug-23 19:02 34.350736 -116.937462 222 16234ft 382kts
28-Aug-23 19:03 34.274629 -117.025052 223 14232ft 372kts
28-Aug-23 19:04 34.190899 -117.088502 209 13203ft 345kts
28-Aug-23 19:06 34.089186 -117.146693 202 12530ft 347kts
28-Aug-23 19:07 34.001908 -117.193595 209 12025ft 340kts
28-Aug-23 19:07 33.948359 -117.263416 228 10959ft 329kts
28-Aug-23 19:08 33.893825 -117.340095 227 9740ft 278kts
28-Aug-23 19:09 33.844203 -117.410266 227 8600ft 275kts
28-Aug-23 19:11 33.802883 -117.496060 247 7794ft 247kts
28-Aug-23 19:11 33.783184 -117.561452 247 7508ft 253kts
28-Aug-23 19:12 33.758814 -117.641398 247 6938ft 256kts
28-Aug-23 19:13 33.734892 -117.721795 248 5804ft 255kts
28-Aug-23 19:14 33.711729 -117.799371 248 5042ft 240kts
28-Aug-23 19:15 33.689194 -117.875078 248 4418ft 239kts
28-Aug-23 19:16 33.670362 -117.950338 263 3749ft 229kts
28-Aug-23 19:17 33.699229 -118.008446 312 2921ft 205kts
28-Aug-23 19:18 33.735164 -118.051817 311 1991ft 160kts
28-Aug-23 19:19 33.763447 -118.085704 309 1544ft 133kts
28-Aug-23 19:20 33.790556 -118.118460 311 650ft 136kts
28-Aug-23 19:21 33.816381 -118.149806 317 53ft 114kts
28-Aug-23 19:22 33.824626 -118.159705 298 62ft 15kts
28-Aug-23 19:23 33.824367 -118.161159 152 56ft 10kts
28-Aug-23 19:24 33.820094 -118.156025 135 55ft 21kts
28-Aug-23 19:25 33.817930 -118.156666 226 50ft 19kts
28-Aug-23 19:26 33.816720 -118.157963 293 54ft 0kts
28-Aug-23 19:27 33.816720 -118.157963 293 54ft 0kts

Navigation Log

Ident Type
Flight plan parsing failed, navigation log unavailable